Slackwater, Pennsylvania
Current Conditions -  °F | °C
As of 6:53 AM on Sunday 25 Jan 2015 (Local Time) from KLNS Reporting Station
Overcast Overcast  
Wind Chill: 29°   Ceiling: 4800
Heat Index: 36°   Visibility: 10mi
Dew Point: 27°   Wind: 9mph
Humidity: 70%   Direction: 240°WSW
Pressure: 29.73"   Gusts: NA
Location:  39.9904°N, 76.3615°W
Report Text: KLNS 251153Z 24008KT 10SM OVC048 02/M03 A2973 RMK AO2 SLP070 T00221028 10022 21006 53023
Loading
Personal Weather Stations






























Interactive Weather Map New forecast layout! Learn more

10-Day Weather Forecast

Advertisements
Track Severe Weather on mobile